• Join FlightAware (Why Join?)
  • Login
  • US Flag 
07:56AM EDT


 

Airport Tracker/Info


-or-


 

Live Flight TrackerFlight Track Log ✈ JZA8121 ✈ 04-May-2013 ✈ CYVR - KPDX

Flight Track Log - Related Links

Times and Time Zones

All times are in EDT time to prevent confusion due to time zone crossing. See the JZA8121 flight status page for this flight to view local times or setup timezone preferences in your user account.

Time Position Orientation Groundspeed Altitude Reporting Facility
EDT Latitude Longitude Course Direction KTS MPH feet Rate Location/Type
11:54AM 49.1667 -123.1833 156° South 90 104 700  Level Vancouver Center
11:55AM 49.1333 -123.2333 224° Southwest 160 184 1,800 1,020 Climbing Vancouver Center
11:56AM 49.1000 -123.2667 213° Southwest 170 196 2,800 1,140 Climbing Vancouver Center
11:57AM 49.0500 -123.2833 192° South 180 207 4,100 1,200 Climbing Vancouver Center
11:58AM 48.8388 -123.0185 168° South  Level FlightAware Approximate
11:58AM 49.0167 -123.2667 162° South 180 207 5,200  Level Vancouver Center
11:59AM 48.7780 -122.9965 156° South  Level FlightAware Approximate
11:59AM 48.9667 -123.2333 156° South 190 219 6,600  Level Vancouver Center
12:00PM 48.9167 -123.1833 147° Southeast 190 219 7,800 1,200 Climbing Vancouver Center
12:01PM 48.8667 -123.1667 168° South 190 219 9,000 1,080 Climbing Vancouver Center
12:02PM 48.8333 -123.1167 135° Southeast 190 219 10,000 960 Climbing Vancouver Center
12:03PM 48.8000 -123.0333 121° Southeast 200 230 11,000 1,020 Climbing Vancouver Center
12:04PM 48.7500 -123.0167 168° South 200 230 12,100 1,020 Climbing Vancouver Center
12:05PM 48.6833 -122.9667 154° Southeast 220 253 13,100 1,020 Climbing Vancouver Center
12:06PM 48.6333 -122.9333 156° South 230 265 14,200 1,020 Climbing Vancouver Center
12:07PM 48.5667 -122.9167 171° South 230 265 15,200 900 Climbing Vancouver Center
12:07PM 48.5394 -122.8894 146° Southeast 235 270 15,900 840 Climbing Seattle Center
12:08PM 48.4761 -122.8567 161° South 241 277 16,800 780 Climbing Seattle Center
12:09PM 48.4119 -122.8211 160° South 246 283 17,600 660 Climbing Seattle Center
12:10PM 48.3342 -122.7792 160° South 249 287 18,200 600 Climbing Seattle Center
12:11PM 48.2664 -122.7433 161° South 256 295 18,900 660 Climbing Seattle Center
12:12PM 48.1986 -122.7081 161° South 260 299 19,600 720 Climbing Seattle Center
12:13PM 48.1311 -122.6725 161° South 261 300 20,400 660 Climbing Seattle Center
12:14PM 48.0642 -122.6361 160° South 258 297 21,000 600 Climbing Seattle Center
12:15PM 47.9942 -122.6008 161° South 266 306 21,700 540 Climbing Seattle Center
12:17PM 47.9261 -122.5639 160° South 265 305 22,200 480 Climbing Seattle Center
12:18PM 47.8564 -122.5278 161° South 268 308 22,700 360 Climbing Seattle Center
12:19PM 47.7711 -122.4833 161° South 272 313 23,000 120 Climbing Seattle Center
12:20PM 47.6964 -122.4450 161° South 287 330 23,000  Level Seattle Center
12:21PM 47.6178 -122.4042 161° South 297 342 23,000  Level Seattle Center
12:22PM 47.5436 -122.3661 161° South 306 352 23,000  Level Seattle Center
12:23PM 47.4639 -122.3247 161° South 307 353 23,000  Level Seattle Center
12:24PM 47.3603 -122.3094 174° South 321 369 23,000  Level Seattle Center
12:25PM 47.2697 -122.3108 181° South 325 374 23,000  Level Seattle Center
12:26PM 47.1786 -122.3108 180° South 328 377 23,000  Level Seattle Center
12:27PM 47.0875 -122.3100 180° South 330 380 23,000  Level Seattle Center
12:28PM 46.9958 -122.3106 180° South 333 383 23,000  Level Seattle Center
12:29PM 46.9056 -122.3106 180° South 328 377 23,000 -600 Level Seattle Center
12:30PM 46.8144 -122.3103 180° South 329 379 21,900 -1,320 Descending Seattle Center
12:31PM 46.7189 -122.3103 180° South 342 394 20,400 -1,680 Descending Seattle Center
12:32PM 46.6022 -122.3131 181° South 350 403 18,500 -1,260 Descending Seattle Center
12:33PM 46.5111 -122.3106 179° South 336 387 17,900 -840 Descending Seattle Center
12:34PM 46.4228 -122.3092 179° South 325 374 16,800 -1,440 Descending Seattle Center
12:35PM 46.3281 -122.3108 181° South 341 392 15,000 -1,560 Descending Seattle Center
12:36PM 46.2394 -122.3158 182° South 326 375 13,700 -1,140 Descending Seattle Center
12:37PM 46.1408 -122.3750 203° Southwest 299 344 12,600 -780 Descending Seattle Center
12:38PM 46.0653 -122.4189 202° Southwest 293 337 12,000 -600 Descending Seattle Center
12:39PM 46.0083 -122.4464 199° South 289 333 11,500 -1,140 Descending Seattle Center
12:40PM 45.9294 -122.4889 201° Southwest 299 344 9,900 -1,620 Descending Seattle Center
12:41PM 45.8450 -122.5414 203° Southwest 306 352 8,400 -1,560 Descending Seattle Center
12:42PM 45.7747 -122.5794 201° Southwest 264 304 6,900 -1,500 Descending Seattle Center
12:43PM 45.7211 -122.5397 153° Southeast 206 237 5,400 -1,440 Descending Seattle Center
12:44PM 45.6769 -122.4886 141° Southeast 229 264 4,000 -720 Descending Seattle Center
12:45PM 45.6331 -122.4367 140° Southeast 177 204 4,000  Level Seattle Center
12:46PM 45.5944 -122.3969 144° Southeast 169 194 4,000 -720 Level Seattle Center
12:47PM 45.5433 -122.4428 212° Southwest 220 253 2,500 -1,380 Descending Seattle Center